createdAt,value
2017-09-30T00:02:21.673Z,27.53
2017-09-30T00:04:51.129Z,23.23
2017-09-30T00:07:21.105Z,19.10
2017-09-30T00:09:49.850Z,18.57
2017-09-30T00:12:18.822Z,20.77
2017-09-30T00:14:47.798Z,18.07
2017-09-30T00:17:15.574Z,20.07
2017-09-30T00:19:43.252Z,18.07
2017-09-30T00:22:11.432Z,18.10
2017-09-30T00:24:39.130Z,18.57
2017-09-30T00:27:06.708Z,19.53
2017-09-30T00:29:34.231Z,18.87
2017-09-30T00:32:03.162Z,18.30
2017-09-30T00:34:31.502Z,19.73
2017-09-30T00:37:02.155Z,20.27
2017-09-30T00:39:30.103Z,18.50
2017-09-30T00:41:57.767Z,20.20
2017-09-30T00:44:25.842Z,21.23
2017-09-30T00:46:53.685Z,18.47
2017-09-30T00:49:21.436Z,19.60
2017-09-30T00:51:49.861Z,17.73
2017-09-30T00:54:17.538Z,18.70
2017-09-30T00:56:45.469Z,18.20
2017-09-30T00:59:15.147Z,19.13
2017-09-30T01:01:43.804Z,18.63
2017-09-30T01:04:11.323Z,17.50
2017-09-30T01:06:38.883Z,21.20
2017-09-30T01:09:06.440Z,18.70
2017-09-30T01:11:34.001Z,17.53
2017-09-30T01:14:01.788Z,24.00
2017-09-30T01:16:29.891Z,23.20
2017-09-30T01:18:57.429Z,22.00
2017-09-30T01:21:26.201Z,17.90
2017-09-30T01:23:53.788Z,19.00
2017-09-30T01:26:21.335Z,18.03
2017-09-30T01:28:48.876Z,23.67
2017-09-30T01:31:16.445Z,18.60
2017-09-30T01:33:44.056Z,19.73
2017-09-30T01:36:11.651Z,23.60
2017-09-30T01:38:39.254Z,19.30
2017-09-30T01:41:06.849Z,17.40
2017-09-30T01:43:34.881Z,20.50
2017-09-30T01:46:02.851Z,19.10
2017-09-30T01:48:30.588Z,14.83
2017-09-30T01:50:58.927Z,21.50
2017-09-30T01:53:26.518Z,17.63
2017-09-30T01:55:54.565Z,15.90
2017-09-30T01:58:22.345Z,15.57
2017-09-30T02:00:50.039Z,18.60
2017-09-30T02:03:17.633Z,20.10
2017-09-30T02:05:45.230Z,21.90
2017-09-30T02:08:13.267Z,18.20
2017-09-30T02:10:41.019Z,17.67
2017-09-30T02:13:09.354Z,20.03
2017-09-30T02:15:38.520Z,21.67
2017-09-30T02:18:06.117Z,17.23
2017-09-30T02:20:33.677Z,18.23
2017-09-30T02:23:01.732Z,19.97
2017-09-30T02:25:30.614Z,19.40
2017-09-30T02:27:58.376Z,16.97
2017-09-30T02:30:26.177Z,17.50
2017-09-30T02:32:54.772Z,18.67
2017-09-30T02:35:22.657Z,18.17
2017-09-30T02:37:50.434Z,17.70
2017-09-30T02:40:19.379Z,18.97
2017-09-30T02:42:47.933Z,18.07
2017-09-30T02:45:16.128Z,18.47
2017-09-30T02:47:44.923Z,18.23
2017-09-30T02:50:13.701Z,21.43
2017-09-30T02:52:41.318Z,19.57
2017-09-30T02:55:09.196Z,21.90
2017-09-30T02:57:36.990Z,27.43
2017-09-30T03:00:06.933Z,28.30
2017-09-30T03:02:35.686Z,27.13
2017-09-30T03:05:03.379Z,28.73
2017-09-30T03:07:31.069Z,30.00
2017-09-30T03:09:58.696Z,26.40
2017-09-30T03:12:31.610Z,29.87
2017-09-30T03:15:00.311Z,27.33
2017-09-30T03:17:29.394Z,27.10
2017-09-30T03:19:57.565Z,25.20
2017-09-30T03:22:25.603Z,18.40
2017-09-30T03:24:53.521Z,19.70
2017-09-30T03:27:21.270Z,21.20
2017-09-30T03:29:49.295Z,20.53
2017-09-30T03:32:17.250Z,18.77
2017-09-30T03:34:44.832Z,22.30
2017-09-30T03:37:12.384Z,21.63
2017-09-30T03:39:39.906Z,18.03
2017-09-30T03:42:07.485Z,21.87
2017-09-30T03:44:35.658Z,16.93
2017-09-30T03:47:04.391Z,17.83
2017-09-30T03:49:32.174Z,22.53
2017-09-30T03:51:59.787Z,20.93
2017-09-30T03:54:27.406Z,18.63
2017-09-30T03:56:54.983Z,21.53
2017-09-30T03:59:22.570Z,21.63
2017-09-30T04:01:50.159Z,23.27
2017-09-30T04:04:18.080Z,20.17
2017-09-30T04:06:46.383Z,20.60
2017-09-30T04:09:15.368Z,21.70
2017-09-30T04:11:48.107Z,18.57
2017-09-30T04:14:15.625Z,18.53
2017-09-30T04:19:17.899Z,24.13
2017-09-30T04:21:46.203Z,21.07
2017-09-30T04:24:14.708Z,21.90
2017-09-30T04:26:47.449Z,19.83
2017-09-30T04:29:18.507Z,23.77
2017-09-30T04:31:52.984Z,20.57
2017-09-30T04:34:35.234Z,23.87
2017-09-30T04:39:40.954Z,26.47
2017-09-30T04:45:40.868Z,24.17
2017-09-30T04:48:08.408Z,23.50
2017-09-30T04:50:35.998Z,29.40
2017-09-30T04:53:03.545Z,22.70
2017-09-30T04:55:31.319Z,27.60
2017-09-30T04:57:58.864Z,26.47
2017-09-30T05:00:28.631Z,27.30
2017-09-30T05:02:57.407Z,28.53
2017-09-30T05:05:25.087Z,27.17
2017-09-30T05:07:54.229Z,26.40
2017-09-30T05:10:21.710Z,25.77
2017-09-30T05:12:50.578Z,27.00
2017-09-30T05:15:18.714Z,26.63
2017-09-30T05:17:46.246Z,27.03
2017-09-30T05:20:13.891Z,26.63
2017-09-30T05:22:41.387Z,23.70
2017-09-30T05:25:09.986Z,23.20
2017-09-30T05:27:37.692Z,20.03
2017-09-30T05:30:06.757Z,21.77
2017-09-30T05:32:34.286Z,22.73
2017-09-30T05:35:01.818Z,25.07
2017-09-30T05:37:29.316Z,22.23
2017-09-30T05:39:56.825Z,22.33
2017-09-30T05:42:24.384Z,23.60
2017-09-30T05:44:51.919Z,27.50
2017-09-30T05:47:19.464Z,20.70
2017-09-30T05:49:48.334Z,24.70
2017-09-30T05:52:15.980Z,18.90
2017-09-30T05:54:44.632Z,20.13
2017-09-30T05:57:12.228Z,26.03
2017-09-30T05:59:39.789Z,20.60
2017-09-30T06:02:07.422Z,20.30
2017-09-30T06:04:35.382Z,23.83
2017-09-30T06:07:03.096Z,19.83
2017-09-30T06:09:30.671Z,21.07
2017-09-30T06:11:58.161Z,23.10
2017-09-30T06:14:25.792Z,22.60
2017-09-30T06:16:53.362Z,19.97
2017-09-30T06:19:21.005Z,23.10
2017-09-30T06:21:48.588Z,20.63
2017-09-30T06:24:16.120Z,21.70
2017-09-30T06:26:43.691Z,23.23
2017-09-30T06:29:11.256Z,22.47
2017-09-30T06:31:38.834Z,23.10
2017-09-30T06:34:13.651Z,22.87
2017-09-30T06:36:53.025Z,25.37
2017-09-30T06:39:25.853Z,22.50
2017-09-30T06:41:55.873Z,22.67
2017-09-30T06:44:24.976Z,31.63
2017-09-30T06:46:52.615Z,22.73
2017-09-30T06:52:04.668Z,22.83
2017-09-30T06:54:32.237Z,26.20
2017-09-30T06:56:59.819Z,28.27
2017-09-30T06:59:27.386Z,26.60
2017-09-30T07:01:55.067Z,27.87
2017-09-30T07:04:22.628Z,23.53
2017-09-30T07:07:14.829Z,26.97
2017-09-30T07:09:52.385Z,27.30
2017-09-30T07:12:22.271Z,23.03
2017-09-30T07:14:52.055Z,29.20
2017-09-30T07:17:19.646Z,25.80
2017-09-30T07:19:47.355Z,25.17
2017-09-30T07:22:14.937Z,21.50
2017-09-30T07:24:42.468Z,29.10
2017-09-30T07:27:09.990Z,23.77
2017-09-30T07:29:46.664Z,24.93
2017-09-30T07:32:14.280Z,25.50
2017-09-30T07:34:47.514Z,25.90
2017-09-30T07:37:15.018Z,24.57
2017-09-30T07:39:42.568Z,24.90
2017-09-30T07:42:10.151Z,24.57
2017-09-30T07:44:37.664Z,24.10
2017-09-30T07:47:05.189Z,20.67
2017-09-30T07:49:32.916Z,26.23
2017-09-30T07:52:01.957Z,20.53
2017-09-30T07:54:29.913Z,24.93
2017-09-30T07:57:10.493Z,23.93
2017-09-30T07:59:38.006Z,22.70
2017-09-30T08:02:15.772Z,21.30
2017-09-30T08:04:43.258Z,19.50
2017-09-30T08:07:12.534Z,21.90
2017-09-30T08:09:40.121Z,18.50
2017-09-30T08:12:07.714Z,21.77
2017-09-30T08:14:35.216Z,20.57
2017-09-30T08:17:03.170Z,21.77
2017-09-30T08:19:30.672Z,24.80
2017-09-30T08:21:58.159Z,24.63
2017-09-30T08:24:25.775Z,23.10
2017-09-30T08:26:53.312Z,22.07
2017-09-30T08:29:20.849Z,21.50
2017-09-30T08:31:48.360Z,23.50
2017-09-30T08:34:16.092Z,21.87
2017-09-30T08:36:43.656Z,28.77
2017-09-30T08:39:11.199Z,23.50
2017-09-30T08:41:46.915Z,20.23
2017-09-30T08:44:15.233Z,21.23
2017-09-30T08:46:43.905Z,24.03
2017-09-30T08:49:11.929Z,19.00
2017-09-30T08:51:39.444Z,20.73
2017-09-30T08:54:07.009Z,20.97
2017-09-30T08:56:34.559Z,21.50
2017-09-30T08:59:02.236Z,18.40
2017-09-30T09:01:29.779Z,23.23
2017-09-30T09:03:57.294Z,22.70
2017-09-30T09:06:24.966Z,15.67
2017-09-30T09:08:52.695Z,15.07
2017-09-30T09:11:20.271Z,12.70
2017-09-30T09:16:21.535Z,12.80
2017-09-30T09:18:49.046Z,11.70
2017-09-30T09:21:16.915Z,15.07
2017-09-30T09:23:44.502Z,11.70
2017-09-30T09:26:12.447Z,12.30
2017-09-30T09:28:40.090Z,14.10
2017-09-30T09:31:09.168Z,12.90
2017-09-30T09:33:36.761Z,11.70
2017-09-30T09:36:05.221Z,13.63
2017-09-30T09:38:32.832Z,11.37
2017-09-30T09:41:00.454Z,13.77
2017-09-30T09:43:27.935Z,13.80
2017-09-30T09:45:55.448Z,12.57
2017-09-30T09:48:23.032Z,12.27
2017-09-30T09:50:50.569Z,14.70
2017-09-30T09:53:18.203Z,12.70
2017-09-30T09:55:45.736Z,12.03
2017-09-30T09:58:13.413Z,13.10
2017-09-30T10:00:40.929Z,12.03
2017-09-30T10:03:08.606Z,13.07
2017-09-30T10:05:38.682Z,13.20
2017-09-30T10:08:06.830Z,11.33
2017-09-30T10:10:34.660Z,9.57
2017-09-30T10:13:04.033Z,10.07
2017-09-30T10:15:31.560Z,9.03
2017-09-30T10:17:59.107Z,9.37
2017-09-30T10:20:27.732Z,8.87
2017-09-30T10:22:55.260Z,9.77
2017-09-30T10:25:23.228Z,9.40
2017-09-30T10:27:50.825Z,7.33
2017-09-30T10:30:18.314Z,11.33
2017-09-30T10:32:46.070Z,7.07
2017-09-30T10:35:13.596Z,7.30
2017-09-30T10:37:41.965Z,7.47
2017-09-30T10:40:09.577Z,7.43
2017-09-30T10:42:37.202Z,8.07
2017-09-30T10:45:04.867Z,7.97
2017-09-30T10:47:32.542Z,6.00
2017-09-30T10:50:00.082Z,6.43
2017-09-30T10:52:27.595Z,10.73
2017-09-30T10:54:55.148Z,8.33
2017-09-30T10:57:26.130Z,6.57
2017-09-30T10:59:53.628Z,6.93
2017-09-30T11:02:21.139Z,6.57
2017-09-30T11:04:48.651Z,8.73
2017-09-30T11:07:16.210Z,7.13
2017-09-30T11:09:43.753Z,7.33
2017-09-30T11:12:11.212Z,6.60
2017-09-30T11:14:38.781Z,6.13
2017-09-30T11:17:06.277Z,7.63
2017-09-30T11:19:34.862Z,9.17
2017-09-30T11:22:02.379Z,6.37
2017-09-30T11:24:29.940Z,6.87
2017-09-30T11:26:57.771Z,6.37
2017-09-30T11:29:25.585Z,7.10
2017-09-30T11:31:57.164Z,7.10
2017-09-30T11:34:24.882Z,8.90
2017-09-30T11:36:52.477Z,6.83
2017-09-30T11:39:20.289Z,6.70
2017-09-30T11:41:52.652Z,7.23
2017-09-30T11:44:28.307Z,6.70
2017-09-30T11:46:55.969Z,7.33
2017-09-30T11:49:25.985Z,6.53
2017-09-30T11:51:53.542Z,6.33
2017-09-30T11:54:21.058Z,6.33
2017-09-30T11:57:01.277Z,6.10
2017-09-30T11:59:28.871Z,6.30
2017-09-30T12:02:00.678Z,8.23
2017-09-30T12:04:31.686Z,7.00
2017-09-30T12:06:59.283Z,6.63
2017-09-30T12:09:27.200Z,14.30
2017-09-30T12:11:54.845Z,6.17
2017-09-30T12:14:23.895Z,7.00
2017-09-30T12:16:51.575Z,8.47
2017-09-30T12:19:19.216Z,5.90
2017-09-30T12:24:45.219Z,7.17
2017-09-30T12:27:12.807Z,6.17
2017-09-30T12:29:41.824Z,6.30
2017-09-30T12:32:10.334Z,6.00
2017-09-30T12:34:38.017Z,6.20
2017-09-30T12:37:06.529Z,5.87
2017-09-30T12:39:34.229Z,6.00
2017-09-30T12:42:02.252Z,8.43
2017-09-30T12:44:30.289Z,6.20
2017-09-30T12:46:59.221Z,8.53
2017-09-30T12:49:29.475Z,5.87
2017-09-30T12:51:57.137Z,5.33
2017-09-30T12:54:25.319Z,6.43
2017-09-30T12:56:55.563Z,6.10
2017-09-30T12:59:23.282Z,6.23
2017-09-30T13:01:50.824Z,7.00
2017-09-30T13:04:18.326Z,6.50
2017-09-30T13:06:45.855Z,7.50
2017-09-30T13:09:13.437Z,7.00
2017-09-30T13:11:40.956Z,6.07
2017-09-30T13:14:08.483Z,6.77
2017-09-30T13:16:36.213Z,7.60
2017-09-30T13:19:03.807Z,7.30
2017-09-30T13:21:31.357Z,6.53
2017-09-30T13:23:58.900Z,8.77
2017-09-30T13:26:26.421Z,6.13
2017-09-30T13:28:53.991Z,7.07
2017-09-30T13:31:21.585Z,10.80
2017-09-30T13:33:49.093Z,7.40
2017-09-30T13:36:16.628Z,7.40
2017-09-30T13:38:44.139Z,5.87
2017-09-30T13:41:11.676Z,10.17
2017-09-30T13:43:40.259Z,8.23
2017-09-30T13:46:08.313Z,8.73
2017-09-30T13:48:35.829Z,12.40
2017-09-30T13:51:03.328Z,17.93
2017-09-30T13:53:30.972Z,14.80
2017-09-30T13:56:00.490Z,14.17
2017-09-30T13:58:28.179Z,12.67
2017-09-30T14:00:55.720Z,11.10
2017-09-30T14:03:23.950Z,11.83
2017-09-30T14:05:51.489Z,12.60
2017-09-30T14:08:19.004Z,13.93
2017-09-30T14:10:46.604Z,12.50
2017-09-30T14:13:14.284Z,16.80
2017-09-30T14:15:42.071Z,12.20
2017-09-30T14:18:09.831Z,14.00
2017-09-30T14:23:16.971Z,12.50
2017-09-30T14:25:44.468Z,20.20
2017-09-30T14:28:12.037Z,14.30
2017-09-30T14:30:41.453Z,14.33
2017-09-30T14:33:09.012Z,14.85
2017-09-30T14:35:36.536Z,14.90
2017-09-30T14:38:04.094Z,15.27
2017-09-30T14:40:31.649Z,13.17
2017-09-30T14:42:59.204Z,13.67
2017-09-30T14:45:28.687Z,13.63
2017-09-30T14:47:56.459Z,14.80
2017-09-30T14:50:23.977Z,13.20
2017-09-30T14:58:12.926Z,13.00
2017-09-30T15:00:41.053Z,11.93
2017-09-30T15:03:08.687Z,20.50
2017-09-30T15:08:11.409Z,12.67
2017-09-30T15:10:38.919Z,12.70
2017-09-30T15:13:06.504Z,17.20
2017-09-30T15:15:34.255Z,15.67
2017-09-30T15:18:01.854Z,20.73
2017-09-30T15:20:29.363Z,25.77
2017-09-30T15:22:56.917Z,22.17
2017-09-30T15:25:24.517Z,20.10
2017-09-30T15:27:52.056Z,21.50
2017-09-30T15:30:19.610Z,17.30
2017-09-30T15:32:47.213Z,13.47
2017-09-30T15:35:14.750Z,13.50
2017-09-30T15:37:42.295Z,10.93
2017-09-30T15:43:17.717Z,14.00
2017-09-30T15:45:47.244Z,11.70
2017-09-30T15:48:15.016Z,13.57
2017-09-30T15:50:42.727Z,15.97
2017-09-30T15:53:11.394Z,8.37
2017-09-30T15:55:39.047Z,11.77
2017-09-30T15:58:06.559Z,7.30
2017-09-30T16:00:34.027Z,7.60
2017-09-30T16:06:56.882Z,5.27
2017-09-30T16:09:24.559Z,6.67
2017-09-30T16:11:58.567Z,5.73
2017-09-30T16:17:01.840Z,6.67
2017-09-30T16:19:29.681Z,4.30
2017-09-30T16:21:57.252Z,4.23
2017-09-30T16:24:24.762Z,5.40
2017-09-30T16:27:12.052Z,5.30
